Hauptseite
METAR-TAF:

METAR-TAF

Flughäfen :

Flughafen Jönköping

Jönköping, Schweden

Breite: 57-46N, Länge: 014-05E, Höhe: 226 m

Beobachtung

Neuester Wetterbericht von vor 32 Minuten, um 21:50 UTC
Wind 5 kt aus Süd/Südwest
Temperatur 11°C
Luftfeuchtigkeit 94%
Luftdruck 1011 hPa
Sichtweite 10 km oder mehr
Leicht bewölkt in der Höhe von 4600 ft

METAR: ESGJ 182150Z 20005KT 9999 FEW046 11/10 Q1011

Zeit: 00:22 (22:22 UTC)

Prognose

Neuester Wetterbericht von vor 1 Stunde und 52 Minuten, um 20:30 UTC
Gültige Prognose vom 18 um 21 UTC bis 19 um 01 UTC
Wind 7 kt aus Südwest
Sichtweite 10 km oder mehr
keine Wolken unter 1500 m und keine Kumulonimbus oder Gewitterwolken

TAF: ESGJ 182030Z 1821/1901 23007KT CAVOK

Wetterbeobachtungen und Prognosen von mehr als 4000 Flughäfen (METAR und TAF Bericht).

Die verfügbaren Stationen werden durch gelbe und rote Markierungen auf der Karte dargestellt.

Führen Sie die Maus auf sie, um den Namen der Station zu sehen.

Darauf klicken, um die Beobachtung von Wetterbeobachtungen und Prognosen zu sehen.

Um die Karte zu ändern : klicken Sie auf den grünen Tasten mit einem schwarzen Kreuz Zum Vergrößern, auf den grünen Button mit einem Gedankenstrich zu verkleinern, oder auf die grünen Pfeile für benachbarte Karten.


METAR-TAF: